createdAt,value
2023-04-09T00:01:13.851Z,5.78
2023-04-09T00:03:41.114Z,5.77
2023-04-09T00:06:08.664Z,5.78
2023-04-09T00:08:35.905Z,5.78
2023-04-09T00:11:03.622Z,5.77
2023-04-09T00:13:39.307Z,5.77
2023-04-09T00:16:08.473Z,5.74
2023-04-09T00:18:36.175Z,5.72
2023-04-09T00:21:03.621Z,5.72
2023-04-09T00:23:31.024Z,5.74
2023-04-09T00:25:58.427Z,5.73
2023-04-09T00:28:25.569Z,5.72
2023-04-09T00:30:53.044Z,5.70
2023-04-09T00:33:20.269Z,5.72
2023-04-09T00:35:47.664Z,5.71
2023-04-09T00:38:14.863Z,5.70
2023-04-09T00:40:42.422Z,5.66
2023-04-09T00:43:09.715Z,5.67
2023-04-09T00:45:38.030Z,5.65
2023-04-09T00:48:05.587Z,5.63
2023-04-09T00:50:32.956Z,5.64
2023-04-09T00:53:01.202Z,5.63
2023-04-09T00:55:29.805Z,5.63
2023-04-09T00:57:56.945Z,5.62
2023-04-09T01:00:24.554Z,5.61
2023-04-09T01:02:53.212Z,5.60
2023-04-09T01:05:20.879Z,5.61
2023-04-09T01:08:18.011Z,5.62
2023-04-09T01:11:19.328Z,5.60
2023-04-09T01:14:02.256Z,5.61
2023-04-09T01:16:32.649Z,5.60
2023-04-09T01:20:11.077Z,5.58
2023-04-09T01:23:25.815Z,5.58
2023-04-09T01:26:24.994Z,5.60
2023-04-09T01:28:57.516Z,5.58
2023-04-09T01:31:32.209Z,5.56
2023-04-09T01:34:02.107Z,5.52
2023-04-09T01:36:32.291Z,5.53
2023-04-09T01:39:03.628Z,5.50
2023-04-09T01:41:34.157Z,5.49
2023-04-09T01:44:05.717Z,5.49
2023-04-09T01:46:34.987Z,5.48
2023-04-09T01:49:03.168Z,5.47
2023-04-09T01:51:31.638Z,5.46
2023-04-09T01:54:03.300Z,5.42
2023-04-09T01:56:44.668Z,5.43
2023-04-09T01:59:13.588Z,5.42
2023-04-09T02:01:53.318Z,5.40
2023-04-09T02:04:49.210Z,5.40
2023-04-09T02:07:40.548Z,5.39
2023-04-09T02:10:11.960Z,5.36
2023-04-09T02:12:45.574Z,5.35
2023-04-09T02:15:14.349Z,5.33
2023-04-09T02:17:41.513Z,5.29
2023-04-09T02:20:09.694Z,5.28
2023-04-09T02:22:36.812Z,5.29
2023-04-09T02:25:04.815Z,5.31
2023-04-09T02:27:31.855Z,5.28
2023-04-09T02:29:59.228Z,5.27
2023-04-09T02:32:26.543Z,5.22
2023-04-09T02:34:54.000Z,5.22
2023-04-09T02:37:21.283Z,5.21
2023-04-09T02:39:48.644Z,5.20
2023-04-09T02:42:15.751Z,5.20
2023-04-09T02:44:44.273Z,5.23
2023-04-09T02:47:13.067Z,5.21
2023-04-09T02:49:40.505Z,5.19
2023-04-09T02:52:09.545Z,5.18
2023-04-09T02:54:36.906Z,5.15
2023-04-09T02:57:04.067Z,5.16
2023-04-09T02:59:32.975Z,5.16
2023-04-09T03:02:00.341Z,5.16
2023-04-09T03:04:27.822Z,5.15
2023-04-09T03:06:55.016Z,5.15
2023-04-09T03:09:22.358Z,5.16
2023-04-09T03:11:49.401Z,5.16
2023-04-09T03:14:16.872Z,5.15
2023-04-09T03:16:44.866Z,5.15
2023-04-09T03:19:12.300Z,5.13
2023-04-09T03:21:39.417Z,5.13
2023-04-09T03:24:07.236Z,5.12
2023-04-09T03:26:37.971Z,5.15
2023-04-09T03:29:07.290Z,5.15
2023-04-09T03:31:34.489Z,5.15
2023-04-09T03:34:03.141Z,5.14
2023-04-09T03:36:33.015Z,5.13
2023-04-09T03:39:05.042Z,5.12
2023-04-09T03:41:38.351Z,5.12
2023-04-09T03:44:12.300Z,5.12
2023-04-09T03:46:57.022Z,5.11
2023-04-09T03:49:25.860Z,5.11
2023-04-09T03:51:56.583Z,5.11
2023-04-09T03:54:30.486Z,5.11
2023-04-09T03:56:59.090Z,5.11
2023-04-09T03:59:26.474Z,5.09
2023-04-09T04:01:53.797Z,5.09
2023-04-09T04:04:23.571Z,5.10
2023-04-09T04:06:55.443Z,5.09
2023-04-09T04:09:29.940Z,5.07
2023-04-09T04:12:04.999Z,5.05
2023-04-09T04:14:47.763Z,5.06
2023-04-09T04:17:24.837Z,5.06
2023-04-09T04:19:53.135Z,5.06
2023-04-09T04:22:20.788Z,5.06
2023-04-09T04:24:52.302Z,5.06
2023-04-09T04:27:21.905Z,5.06
2023-04-09T04:29:49.339Z,5.06
2023-04-09T04:32:27.280Z,5.07
2023-04-09T04:34:56.224Z,5.09
2023-04-09T04:37:26.695Z,5.09
2023-04-09T04:39:58.168Z,5.10
2023-04-09T04:42:25.801Z,5.12
2023-04-09T04:44:53.279Z,5.13
2023-04-09T04:47:36.168Z,5.15
2023-04-09T04:50:06.441Z,5.15
2023-04-09T04:52:42.474Z,5.16
2023-04-09T04:55:10.448Z,5.18
2023-04-09T04:57:37.598Z,5.18
2023-04-09T05:00:05.822Z,5.16
2023-04-09T05:02:32.992Z,5.16
2023-04-09T05:05:20.831Z,5.17
2023-04-09T05:07:52.742Z,5.17
2023-04-09T05:10:21.398Z,5.20
2023-04-09T05:12:48.596Z,5.21
2023-04-09T05:15:24.654Z,5.22
2023-04-09T05:17:51.864Z,5.25
2023-04-09T05:20:19.561Z,5.26
2023-04-09T05:22:53.719Z,5.31
2023-04-09T05:25:28.272Z,5.35
2023-04-09T05:27:56.368Z,5.37
2023-04-09T05:30:25.436Z,5.38
2023-04-09T05:32:54.640Z,5.40
2023-04-09T05:35:26.298Z,5.43
2023-04-09T05:37:53.619Z,5.49
2023-04-09T05:40:21.734Z,5.49
2023-04-09T05:42:49.770Z,5.53
2023-04-09T05:45:25.067Z,5.56
2023-04-09T05:47:53.818Z,5.58
2023-04-09T05:50:23.593Z,5.62
2023-04-09T05:52:54.278Z,5.64
2023-04-09T05:55:28.728Z,5.67
2023-04-09T05:58:00.670Z,5.72
2023-04-09T06:00:28.809Z,5.76
2023-04-09T06:02:56.123Z,5.80
2023-04-09T06:05:23.564Z,5.85
2023-04-09T06:07:51.899Z,5.88
2023-04-09T06:10:19.559Z,5.93
2023-04-09T06:12:48.395Z,5.97
2023-04-09T06:15:16.064Z,6.03
2023-04-09T06:17:43.153Z,6.07
2023-04-09T06:20:11.168Z,6.13
2023-04-09T06:22:38.327Z,6.20
2023-04-09T06:25:06.492Z,6.27
2023-04-09T06:27:33.651Z,6.36
2023-04-09T06:30:01.113Z,6.42
2023-04-09T06:32:28.310Z,6.52
2023-04-09T06:34:55.814Z,6.63
2023-04-09T06:37:22.817Z,6.71
2023-04-09T06:40:00.632Z,6.79
2023-04-09T06:42:28.625Z,6.90
2023-04-09T06:45:08.435Z,7.06
2023-04-09T06:47:36.253Z,7.19
2023-04-09T06:50:04.611Z,7.28
2023-04-09T06:52:31.707Z,7.37
2023-04-09T06:54:59.094Z,7.46
2023-04-09T06:57:27.229Z,7.54
2023-04-09T06:59:54.605Z,7.70
2023-04-09T07:02:22.000Z,7.82
2023-04-09T07:04:49.718Z,7.87
2023-04-09T07:07:17.054Z,7.96
2023-04-09T07:09:45.398Z,8.09
2023-04-09T07:12:12.455Z,8.15
2023-04-09T07:14:39.954Z,8.24
2023-04-09T07:17:07.339Z,8.37
2023-04-09T07:19:34.595Z,8.52
2023-04-09T07:22:01.813Z,8.67
2023-04-09T07:24:29.171Z,8.81
2023-04-09T07:26:56.458Z,9.03
2023-04-09T07:29:23.805Z,9.23
2023-04-09T07:31:51.177Z,9.53
2023-04-09T07:34:18.512Z,9.78
2023-04-09T07:36:45.670Z,9.99
2023-04-09T07:39:13.012Z,10.16
2023-04-09T07:41:40.624Z,10.32
2023-04-09T07:44:08.497Z,10.40
2023-04-09T07:46:35.968Z,10.46
2023-04-09T07:49:03.725Z,10.63
2023-04-09T07:51:31.226Z,10.84
2023-04-09T07:53:58.691Z,11.08
2023-04-09T07:56:25.861Z,11.26
2023-04-09T07:58:53.482Z,11.39
2023-04-09T08:01:24.592Z,11.57
2023-04-09T08:03:52.259Z,11.68
2023-04-09T08:06:19.688Z,11.95
2023-04-09T08:08:47.050Z,12.20
2023-04-09T08:11:14.125Z,12.49
2023-04-09T08:13:41.667Z,12.56
2023-04-09T08:16:08.837Z,12.54
2023-04-09T08:18:36.188Z,12.58
2023-04-09T08:21:05.621Z,12.70
2023-04-09T08:23:33.183Z,12.84
2023-04-09T08:26:00.299Z,13.05
2023-04-09T08:28:27.709Z,13.30
2023-04-09T08:30:54.931Z,13.38
2023-04-09T08:33:22.493Z,13.51
2023-04-09T08:35:49.728Z,13.53
2023-04-09T08:38:17.139Z,13.53
2023-04-09T08:40:44.247Z,13.55
2023-04-09T08:43:19.291Z,13.56
2023-04-09T08:45:47.371Z,13.59
2023-04-09T08:48:17.015Z,13.62
2023-04-09T08:50:46.363Z,13.64
2023-04-09T08:53:15.535Z,13.61
2023-04-09T08:55:46.570Z,13.50
2023-04-09T08:58:14.491Z,13.50
2023-04-09T09:00:41.508Z,13.59
2023-04-09T09:03:15.158Z,13.61
2023-04-09T09:05:46.448Z,14.10
2023-04-09T09:08:26.732Z,14.23
2023-04-09T09:10:53.891Z,14.57
2023-04-09T09:13:28.537Z,15.04
2023-04-09T09:16:14.354Z,15.42
2023-04-09T09:18:45.286Z,15.63
2023-04-09T09:21:15.664Z,15.55
2023-04-09T09:23:43.546Z,15.54
2023-04-09T09:26:20.608Z,15.56
2023-04-09T09:28:49.638Z,15.70
2023-04-09T09:31:20.366Z,15.68
2023-04-09T09:33:48.533Z,15.79
2023-04-09T09:36:23.175Z,16.01
2023-04-09T09:38:57.159Z,16.14
2023-04-09T09:41:25.899Z,16.16
2023-04-09T09:43:53.144Z,16.23
2023-04-09T09:46:22.589Z,16.37
2023-04-09T09:48:50.053Z,16.47
2023-04-09T09:51:19.583Z,16.57
2023-04-09T09:53:51.915Z,16.64
2023-04-09T09:56:32.322Z,16.68
2023-04-09T09:59:23.817Z,16.72
2023-04-09T10:02:02.298Z,16.76
2023-04-09T10:04:35.197Z,16.69
2023-04-09T10:07:07.280Z,16.62
2023-04-09T10:09:52.015Z,16.66
2023-04-09T10:12:23.852Z,16.65
2023-04-09T10:14:56.341Z,16.58
2023-04-09T10:17:23.880Z,16.52
2023-04-09T10:20:19.757Z,16.53
2023-04-09T10:22:51.709Z,16.59
2023-04-09T10:25:19.419Z,16.59
2023-04-09T10:27:59.985Z,16.71
2023-04-09T10:30:34.821Z,16.78
2023-04-09T10:33:16.597Z,16.84
2023-04-09T10:35:47.188Z,17.03
2023-04-09T10:38:15.588Z,17.15
2023-04-09T10:40:49.627Z,17.28
2023-04-09T10:43:22.122Z,17.41
2023-04-09T10:45:54.411Z,17.47
2023-04-09T10:48:26.086Z,17.51
2023-04-09T10:50:53.154Z,17.41
2023-04-09T10:53:26.142Z,17.29
2023-04-09T10:55:56.192Z,17.32
2023-04-09T10:58:23.533Z,17.29
2023-04-09T11:00:51.641Z,17.29
2023-04-09T11:03:32.768Z,17.24
2023-04-09T11:06:09.072Z,17.18
2023-04-09T11:08:38.629Z,17.14
2023-04-09T11:11:06.392Z,17.07
2023-04-09T11:13:34.491Z,17.04
2023-04-09T11:16:06.545Z,16.95
2023-04-09T11:18:36.965Z,16.84
2023-04-09T11:21:04.498Z,16.71
2023-04-09T11:23:33.283Z,16.64
2023-04-09T11:26:02.118Z,16.59
2023-04-09T11:28:29.469Z,16.53
2023-04-09T11:30:56.591Z,16.44
2023-04-09T11:33:32.117Z,16.30
2023-04-09T11:35:59.417Z,16.17
2023-04-09T11:38:26.849Z,16.09
2023-04-09T11:40:58.094Z,16.04
2023-04-09T11:43:25.918Z,15.99
2023-04-09T11:45:53.307Z,15.94
2023-04-09T11:48:23.347Z,15.90
2023-04-09T11:50:51.285Z,15.86
2023-04-09T11:53:24.449Z,15.81
2023-04-09T11:55:53.443Z,15.77
2023-04-09T11:58:25.595Z,15.77
2023-04-09T12:00:55.424Z,15.75
2023-04-09T12:03:33.416Z,15.69
2023-04-09T12:06:03.368Z,15.68
2023-04-09T12:08:31.777Z,15.75
2023-04-09T12:11:16.126Z,15.83
2023-04-09T12:13:45.591Z,15.88
2023-04-09T12:16:14.067Z,15.89
2023-04-09T12:18:41.809Z,15.94
2023-04-09T12:21:09.012Z,15.95
2023-04-09T12:23:36.476Z,15.98
2023-04-09T12:26:04.203Z,16.04
2023-04-09T12:28:31.504Z,16.06
2023-04-09T12:30:59.499Z,16.09
2023-04-09T12:33:27.289Z,16.11
2023-04-09T12:35:54.371Z,16.10
2023-04-09T12:38:21.705Z,16.15
2023-04-09T12:40:48.827Z,16.18
2023-04-09T12:43:16.543Z,16.23
2023-04-09T12:45:43.677Z,16.24
2023-04-09T12:48:11.715Z,16.22
2023-04-09T12:50:39.052Z,16.21
2023-04-09T12:53:06.515Z,16.21
2023-04-09T12:55:33.774Z,16.22
2023-04-09T12:58:02.483Z,16.22
2023-04-09T13:00:31.091Z,16.22
2023-04-09T13:02:58.884Z,16.21
2023-04-09T13:05:26.148Z,16.21
2023-04-09T13:07:53.816Z,16.20
2023-04-09T13:10:20.946Z,16.20
2023-04-09T13:12:48.437Z,16.21
2023-04-09T13:15:15.569Z,16.22
2023-04-09T13:17:43.129Z,16.28
2023-04-09T13:20:10.599Z,16.32
2023-04-09T13:22:38.034Z,16.35
2023-04-09T13:25:05.775Z,16.38
2023-04-09T13:27:33.274Z,16.42
2023-04-09T13:30:00.336Z,16.44
2023-04-09T13:32:27.809Z,16.49
2023-04-09T13:34:55.712Z,16.53
2023-04-09T13:37:23.286Z,16.55
2023-04-09T13:39:51.355Z,16.57
2023-04-09T13:42:19.040Z,16.57
2023-04-09T13:44:46.606Z,16.63
2023-04-09T13:47:16.232Z,16.67
2023-04-09T13:49:43.983Z,16.69
2023-04-09T13:52:13.462Z,16.67
2023-04-09T13:54:40.889Z,16.67
2023-04-09T13:57:08.392Z,16.66
2023-04-09T13:59:36.055Z,16.63
2023-04-09T14:02:04.071Z,16.62
2023-04-09T14:04:31.522Z,16.60
2023-04-09T14:06:59.024Z,16.62
2023-04-09T14:09:26.451Z,16.62
2023-04-09T14:11:55.084Z,16.67
2023-04-09T14:14:22.261Z,16.71
2023-04-09T14:16:50.412Z,16.71
2023-04-09T14:19:17.777Z,16.71
2023-04-09T14:21:45.269Z,16.71
2023-04-09T14:24:12.418Z,16.75
2023-04-09T14:26:39.735Z,16.81
2023-04-09T14:29:06.832Z,16.89
2023-04-09T14:31:34.208Z,17.00
2023-04-09T14:34:01.336Z,17.08
2023-04-09T14:36:28.648Z,17.12
2023-04-09T14:38:57.851Z,17.14
2023-04-09T14:41:26.165Z,17.17
2023-04-09T14:43:53.286Z,17.20
2023-04-09T14:46:22.116Z,17.21
2023-04-09T14:48:49.349Z,17.16
2023-04-09T14:51:16.692Z,17.10
2023-04-09T14:53:43.844Z,17.05
2023-04-09T14:56:11.217Z,17.08
2023-04-09T14:58:38.375Z,17.09
2023-04-09T15:01:06.327Z,17.13
2023-04-09T15:03:33.572Z,17.20
2023-04-09T15:06:01.327Z,17.22
2023-04-09T15:08:28.556Z,17.20
2023-04-09T15:10:55.910Z,17.19
2023-04-09T15:13:23.995Z,17.24
2023-04-09T15:15:51.476Z,17.37
2023-04-09T15:18:19.981Z,17.43
2023-04-09T15:20:49.080Z,17.40
2023-04-09T15:23:16.283Z,17.37
2023-04-09T15:25:43.747Z,17.35
2023-04-09T15:28:10.914Z,17.34
2023-04-09T15:30:38.417Z,17.31
2023-04-09T15:33:06.191Z,17.31
2023-04-09T15:35:35.308Z,17.34
2023-04-09T15:38:02.472Z,17.35
2023-04-09T15:40:31.018Z,17.44
2023-04-09T15:42:58.192Z,17.46
2023-04-09T15:45:26.904Z,17.39
2023-04-09T15:47:54.461Z,17.31
2023-04-09T15:50:21.938Z,17.26
2023-04-09T15:52:49.106Z,17.20
2023-04-09T15:55:16.723Z,17.19
2023-04-09T15:57:46.782Z,17.14
2023-04-09T16:00:15.587Z,17.09
2023-04-09T16:02:42.743Z,17.08
2023-04-09T16:05:10.571Z,17.06
2023-04-09T16:07:39.347Z,16.99
2023-04-09T16:10:07.732Z,16.93
2023-04-09T16:12:34.754Z,16.90
2023-04-09T16:15:02.851Z,16.83
2023-04-09T16:17:30.838Z,16.78
2023-04-09T16:19:58.286Z,16.74
2023-04-09T16:22:25.582Z,16.68
2023-04-09T16:24:52.894Z,16.62
2023-04-09T16:27:20.348Z,16.56
2023-04-09T16:29:48.211Z,16.50
2023-04-09T16:32:15.431Z,16.45
2023-04-09T16:34:43.003Z,16.40
2023-04-09T16:37:10.233Z,16.34
2023-04-09T16:39:37.737Z,16.29
2023-04-09T16:42:04.959Z,16.23
2023-04-09T16:44:32.322Z,16.17
2023-04-09T16:46:59.554Z,16.11
2023-04-09T16:49:27.015Z,16.05
2023-04-09T16:51:55.060Z,15.98
2023-04-09T16:54:22.572Z,15.92
2023-04-09T16:56:49.760Z,15.86
2023-04-09T16:59:21.080Z,15.80
2023-04-09T17:01:49.162Z,15.75
2023-04-09T17:04:16.979Z,15.68
2023-04-09T17:06:44.177Z,15.63
2023-04-09T17:09:11.671Z,15.57
2023-04-09T17:11:38.961Z,15.51
2023-04-09T17:14:06.516Z,15.45
2023-04-09T17:16:33.909Z,15.41
2023-04-09T17:19:03.998Z,15.34
2023-04-09T17:21:31.341Z,15.31
2023-04-09T17:23:59.639Z,15.26
2023-04-09T17:26:26.854Z,15.20
2023-04-09T17:28:54.749Z,15.14
2023-04-09T17:31:24.087Z,15.08
2023-04-09T17:33:52.292Z,15.02
2023-04-09T17:36:21.086Z,14.96
2023-04-09T17:38:49.944Z,14.90
2023-04-09T17:41:17.361Z,14.84
2023-04-09T17:43:44.690Z,14.79
2023-04-09T17:46:12.339Z,14.73
2023-04-09T17:48:40.842Z,14.68
2023-04-09T17:51:07.993Z,14.64
2023-04-09T17:53:35.315Z,14.59
2023-04-09T17:56:03.888Z,14.54
2023-04-09T17:58:31.623Z,14.48
2023-04-09T18:00:59.768Z,14.44
2023-04-09T18:03:27.598Z,14.38
2023-04-09T18:05:54.946Z,14.32
2023-04-09T18:08:22.500Z,14.27
2023-04-09T18:11:08.862Z,14.23
2023-04-09T18:13:39.554Z,14.17
2023-04-09T18:16:12.940Z,14.14
2023-04-09T18:18:41.344Z,14.09
2023-04-09T18:21:08.598Z,14.03
2023-04-09T18:23:36.247Z,14.00
2023-04-09T18:26:03.583Z,13.95
2023-04-09T18:28:31.203Z,13.89
2023-04-09T18:30:58.863Z,13.82
2023-04-09T18:33:27.026Z,13.77
2023-04-09T18:35:54.302Z,13.71
2023-04-09T18:38:21.845Z,13.66
2023-04-09T18:40:49.196Z,13.61
2023-04-09T18:43:16.607Z,13.55
2023-04-09T18:45:43.790Z,13.49
2023-04-09T18:48:11.221Z,13.46
2023-04-09T18:50:38.302Z,13.40
2023-04-09T18:53:06.604Z,13.34
2023-04-09T18:55:37.725Z,13.28
2023-04-09T18:58:12.646Z,13.23
2023-04-09T19:00:40.395Z,13.20
2023-04-09T19:03:11.181Z,13.13
2023-04-09T19:05:39.925Z,13.04
2023-04-09T19:08:07.767Z,12.98
2023-04-09T19:10:36.016Z,12.93
2023-04-09T19:13:03.751Z,12.87
2023-04-09T19:15:31.065Z,12.83
2023-04-09T19:17:58.464Z,12.77
2023-04-09T19:20:25.636Z,12.74
2023-04-09T19:22:54.504Z,12.71
2023-04-09T19:25:22.755Z,12.66
2023-04-09T19:27:50.680Z,12.64
2023-04-09T19:30:17.973Z,12.61
2023-04-09T19:32:45.917Z,12.57
2023-04-09T19:35:13.264Z,12.52
2023-04-09T19:37:40.823Z,12.48
2023-04-09T19:40:08.905Z,12.45
2023-04-09T19:42:36.709Z,12.41
2023-04-09T19:45:04.076Z,12.38
2023-04-09T19:47:32.176Z,12.34
2023-04-09T19:49:59.400Z,12.31
2023-04-09T19:52:27.031Z,12.25
2023-04-09T19:54:56.339Z,12.21
2023-04-09T19:57:23.973Z,12.16
2023-04-09T19:59:52.187Z,12.17
2023-04-09T20:02:19.892Z,12.13
2023-04-09T20:04:47.621Z,12.08
2023-04-09T20:07:15.652Z,12.02
2023-04-09T20:09:43.528Z,11.98
2023-04-09T20:12:11.274Z,11.96
2023-04-09T20:14:39.321Z,11.92
2023-04-09T20:17:08.740Z,11.89
2023-04-09T20:19:36.257Z,11.86
2023-04-09T20:22:03.748Z,11.83
2023-04-09T20:24:31.001Z,11.78
2023-04-09T20:26:59.658Z,11.74
2023-04-09T20:29:26.968Z,11.71
2023-04-09T20:31:54.438Z,11.65
2023-04-09T20:34:26.557Z,11.60
2023-04-09T20:36:55.386Z,11.58
2023-04-09T20:39:24.881Z,11.54
2023-04-09T20:41:53.359Z,11.50
2023-04-09T20:44:20.485Z,11.47
2023-04-09T20:46:48.002Z,11.43
2023-04-09T20:49:15.096Z,11.40
2023-04-09T20:51:42.481Z,11.36
2023-04-09T20:54:09.807Z,11.33
2023-04-09T20:56:37.273Z,11.30
2023-04-09T20:59:04.326Z,11.26
2023-04-09T21:01:32.212Z,11.23
2023-04-09T21:03:59.541Z,11.20
2023-04-09T21:06:27.108Z,11.15
2023-04-09T21:08:55.704Z,11.13
2023-04-09T21:11:23.614Z,11.10
2023-04-09T21:13:54.974Z,11.07
2023-04-09T21:16:23.254Z,11.03
2023-04-09T21:18:50.600Z,11.00
2023-04-09T21:21:18.540Z,10.94
2023-04-09T21:23:45.880Z,10.92
2023-04-09T21:26:14.110Z,10.89
2023-04-09T21:28:41.353Z,10.83
2023-04-09T21:31:11.251Z,10.80
2023-04-09T21:33:39.227Z,10.76
2023-04-09T21:36:08.030Z,10.73
2023-04-09T21:38:35.450Z,10.67
2023-04-09T21:41:03.264Z,10.63
2023-04-09T21:43:30.428Z,10.59
2023-04-09T21:45:57.981Z,10.55
2023-04-09T21:48:26.464Z,10.52
2023-04-09T21:50:53.923Z,10.51
2023-04-09T21:53:21.172Z,10.47
2023-04-09T21:55:48.532Z,10.43
2023-04-09T21:58:15.912Z,10.41
2023-04-09T22:00:43.209Z,10.37
2023-04-09T22:03:11.000Z,10.32
2023-04-09T22:05:38.656Z,10.32
2023-04-09T22:08:06.149Z,10.29
2023-04-09T22:10:33.738Z,10.26
2023-04-09T22:13:01.309Z,10.24
2023-04-09T22:15:28.984Z,10.23
2023-04-09T22:17:56.304Z,10.21
2023-04-09T22:20:26.158Z,10.17
2023-04-09T22:22:56.424Z,10.15
2023-04-09T22:25:23.929Z,10.13
2023-04-09T22:27:54.319Z,10.10
2023-04-09T22:30:23.712Z,10.06
2023-04-09T22:32:51.496Z,10.02
2023-04-09T22:35:19.125Z,9.99
2023-04-09T22:37:46.900Z,9.94
2023-04-09T22:40:15.891Z,9.91
2023-04-09T22:42:46.712Z,9.91
2023-04-09T22:45:14.740Z,9.88
2023-04-09T22:47:41.915Z,9.86
2023-04-09T22:50:11.427Z,9.82
2023-04-09T22:52:38.438Z,9.78
2023-04-09T22:55:09.879Z,9.74
2023-04-09T22:57:38.321Z,9.72
2023-04-09T23:00:08.400Z,9.69
2023-04-09T23:02:35.613Z,9.65
2023-04-09T23:05:03.562Z,9.62
2023-04-09T23:07:31.028Z,9.59
2023-04-09T23:09:58.391Z,9.55
2023-04-09T23:12:25.789Z,9.52
2023-04-09T23:14:53.976Z,9.48
2023-04-09T23:17:22.607Z,9.46
2023-04-09T23:19:52.327Z,9.41
2023-04-09T23:22:19.486Z,9.37
2023-04-09T23:24:46.761Z,9.30
2023-04-09T23:27:14.181Z,9.25
2023-04-09T23:29:41.443Z,9.21
2023-04-09T23:32:08.511Z,9.14
2023-04-09T23:34:35.944Z,9.13
2023-04-09T23:37:03.052Z,9.10
2023-04-09T23:39:30.367Z,9.07
2023-04-09T23:41:57.920Z,9.04
2023-04-09T23:44:25.264Z,9.01
2023-04-09T23:46:53.163Z,8.99
2023-04-09T23:49:20.667Z,8.97
2023-04-09T23:51:47.758Z,8.97
2023-04-09T23:54:15.072Z,8.93
2023-04-09T23:56:42.336Z,8.91
2023-04-09T23:59:09.936Z,8.88
